PLT2345 SBRF-SBGR
Flight info
| Callsign | PLT2345 |
|---|---|
| Flight time | N/A |
| Altitude | 32000 |
| Route | UDOSA UZ21 TOPUG/N0448F340 UZ21 VUNOX |
| Aircraft | B738/M-SDE2E3FGHIRWXY/LB1 |
Departure
| Time | 2026-05-01 12:41 |
|---|---|
| Airport | Recife/Guararapes - Gilberto Freyre International Airport (SBRF) |
Arrival
| Time | N/A |
|---|---|
| Airport | São Paulo/Guarulhos–Governor André Franco Montoro International Airport (SBGR) |
| Time | Latitude | Longitude | Altitude | Speed | Heading |
|---|---|---|---|---|---|
| 2026-05-01 12:14 | -8.13093 | -34.91940 | 42 ft | 0 kts | 71° |
| 2026-05-01 12:32 | -8.13095 | -34.91946 | 42 ft | 2 kts | 71° |
| 2026-05-01 12:32 | -8.13105 | -34.91975 | 42 ft | 2 kts | 71° |
| 2026-05-01 12:32 | -8.13109 | -34.91985 | 42 ft | 0 kts | 71° |
| 2026-05-01 12:33 | -8.13112 | -34.91994 | 42 ft | 2 kts | 52° |
| 2026-05-01 12:33 | -8.13129 | -34.92003 | 42 ft | 2 kts | 1° |
| 2026-05-01 12:33 | -8.13138 | -34.92003 | 42 ft | 1 kts | 341° |
| 2026-05-01 12:33 | -8.13143 | -34.92000 | 42 ft | 0 kts | 341° |
| 2026-05-01 12:35 | -8.13142 | -34.92001 | 42 ft | 0 kts | 341° |
| 2026-05-01 12:36 | -8.13137 | -34.92002 | 42 ft | 1 kts | 340° |
| 2026-05-01 12:36 | -8.13123 | -34.92007 | 42 ft | 3 kts | 341° |
| 2026-05-01 12:36 | -8.13081 | -34.92023 | 42 ft | 6 kts | 339° |
| 2026-05-01 12:36 | -8.13033 | -34.92037 | 42 ft | 7 kts | 343° |
| 2026-05-01 12:37 | -8.12974 | -34.92056 | 42 ft | 9 kts | 340° |
| 2026-05-01 12:37 | -8.12928 | -34.92071 | 42 ft | 11 kts | 342° |
| 2026-05-01 12:37 | -8.12846 | -34.92099 | 42 ft | 14 kts | 342° |
| 2026-05-01 12:37 | -8.12736 | -34.92133 | 42 ft | 18 kts | 342° |
| 2026-05-01 12:38 | -8.12545 | -34.92199 | 42 ft | 24 kts | 341° |
| 2026-05-01 12:38 | -8.12369 | -34.92256 | 42 ft | 28 kts | 339° |
| 2026-05-01 12:38 | -8.12174 | -34.92319 | 42 ft | 28 kts | 342° |
| 2026-05-01 12:38 | -8.11991 | -34.92379 | 42 ft | 27 kts | 342° |
| 2026-05-01 12:39 | -8.11815 | -34.92437 | 42 ft | 25 kts | 341° |
| 2026-05-01 12:39 | -8.11657 | -34.92490 | 42 ft | 20 kts | 340° |
| 2026-05-01 12:39 | -8.11607 | -34.92516 | 42 ft | 0 kts | 326° |
| 2026-05-01 12:39 | -8.11606 | -34.92516 | 42 ft | 0 kts | 326° |
| 2026-05-01 12:40 | -8.11585 | -34.92530 | 42 ft | 8 kts | 326° |
| 2026-05-01 12:40 | -8.11512 | -34.92591 | 42 ft | 18 kts | 319° |
| 2026-05-01 12:40 | -8.11460 | -34.92685 | 42 ft | 17 kts | 223° |
| 2026-05-01 12:40 | -8.11550 | -34.92677 | 42 ft | 25 kts | 161° |
| 2026-05-01 12:41 | -8.12215 | -34.92458 | 42 ft | 125 kts | 162° |
| 2026-05-01 12:41 | -8.12863 | -34.92243 | 43 ft | 168 kts | 161° |
| 2026-05-01 12:41 | -8.14030 | -34.91817 | 665 ft | 180 kts | 159° |
| 2026-05-01 12:41 | -8.15511 | -34.91360 | 1969 ft | 169 kts | 171° |
| 2026-05-01 12:42 | -8.16315 | -34.91423 | 2298 ft | 181 kts | 194° |
| 2026-05-01 12:42 | -8.17412 | -34.92164 | 2740 ft | 205 kts | 227° |
| 2026-05-01 12:42 | -8.18130 | -34.93471 | 3231 ft | 225 kts | 244° |
| 2026-05-01 12:42 | -8.18830 | -34.95370 | 3890 ft | 243 kts | 247° |
| 2026-05-01 12:43 | -8.19234 | -34.96465 | 4247 ft | 253 kts | 246° |
| 2026-05-01 12:43 | -8.20112 | -34.98761 | 5068 ft | 270 kts | 246° |
| 2026-05-01 12:43 | -8.20575 | -34.99951 | 5462 ft | 280 kts | 246° |
| 2026-05-01 12:43 | -8.21294 | -35.01794 | 5904 ft | 291 kts | 246° |
| 2026-05-01 12:44 | -8.22039 | -35.03705 | 5984 ft | 293 kts | 247° |
| 2026-05-01 12:44 | -8.23034 | -35.06269 | 5980 ft | 291 kts | 247° |
| 2026-05-01 12:44 | -8.24262 | -35.09434 | 5983 ft | 292 kts | 247° |
| 2026-05-01 12:45 | -8.26001 | -35.13921 | 5982 ft | 292 kts | 246° |
| 2026-05-01 12:45 | -8.26777 | -35.15805 | 5992 ft | 294 kts | 242° |
| 2026-05-01 12:45 | -8.27463 | -35.17010 | 6055 ft | 303 kts | 233° |
| 2026-05-01 12:46 | -8.28743 | -35.18680 | 7023 ft | 298 kts | 228° |
| 2026-05-01 12:46 | -8.30085 | -35.20265 | 7792 ft | 303 kts | 227° |
| 2026-05-01 12:46 | -8.31466 | -35.21892 | 8597 ft | 305 kts | 229° |
| 2026-05-01 12:46 | -8.32834 | -35.23543 | 9356 ft | 310 kts | 230° |
| 2026-05-01 12:47 | -8.34202 | -35.25230 | 10099 ft | 314 kts | 230° |
| 2026-05-01 12:47 | -8.36057 | -35.27543 | 10785 ft | 330 kts | 230° |
| 2026-05-01 12:47 | -8.37034 | -35.28763 | 11081 ft | 340 kts | 230° |
| 2026-05-01 12:47 | -8.39086 | -35.31324 | 11675 ft | 358 kts | 230° |
| 2026-05-01 12:48 | -8.40132 | -35.32629 | 12116 ft | 361 kts | 230° |
| 2026-05-01 12:48 | -8.42231 | -35.35248 | 13017 ft | 367 kts | 230° |
| 2026-05-01 12:48 | -8.43328 | -35.36616 | 13446 ft | 370 kts | 230° |
| 2026-05-01 12:48 | -8.44940 | -35.38628 | 14020 ft | 376 kts | 230° |
| 2026-05-01 12:49 | -8.46591 | -35.40688 | 14682 ft | 379 kts | 229° |
| 2026-05-01 12:49 | -8.48249 | -35.42759 | 15412 ft | 380 kts | 229° |
| 2026-05-01 12:49 | -8.49913 | -35.44838 | 15954 ft | 386 kts | 229° |
| 2026-05-01 12:49 | -8.51621 | -35.46971 | 16548 ft | 389 kts | 229° |
| 2026-05-01 12:50 | -8.53326 | -35.49100 | 17182 ft | 391 kts | 228° |
| 2026-05-01 12:50 | -8.55039 | -35.51238 | 17738 ft | 395 kts | 228° |
| 2026-05-01 12:50 | -8.56778 | -35.53411 | 18314 ft | 398 kts | 228° |
| 2026-05-01 12:50 | -8.58513 | -35.55576 | 18862 ft | 401 kts | 228° |
| 2026-05-01 12:51 | -8.60290 | -35.57796 | 19402 ft | 405 kts | 228° |
| 2026-05-01 12:51 | -8.62048 | -35.59992 | 19962 ft | 407 kts | 228° |
| 2026-05-01 12:51 | -8.65643 | -35.64480 | 20984 ft | 413 kts | 228° |
| 2026-05-01 12:52 | -8.68076 | -35.67521 | 21613 ft | 418 kts | 229° |
| 2026-05-01 12:52 | -8.71147 | -35.71362 | 22407 ft | 423 kts | 229° |
| 2026-05-01 12:52 | -8.73000 | -35.73680 | 22893 ft | 425 kts | 229° |
| 2026-05-01 12:53 | -8.76704 | -35.78316 | 23846 ft | 429 kts | 230° |
| 2026-05-01 12:53 | -8.78582 | -35.80667 | 24365 ft | 429 kts | 230° |
| 2026-05-01 12:53 | -8.80481 | -35.83049 | 24785 ft | 432 kts | 230° |
| 2026-05-01 12:54 | -8.82367 | -35.85411 | 25286 ft | 433 kts | 230° |
| 2026-05-01 12:54 | -8.86164 | -35.90168 | 26089 ft | 439 kts | 231° |
| 2026-05-01 12:54 | -8.88067 | -35.92552 | 26545 ft | 439 kts | 231° |
| 2026-05-01 12:55 | -8.91939 | -35.97405 | 27378 ft | 442 kts | 231° |
| 2026-05-01 12:55 | -8.93860 | -35.99814 | 27719 ft | 445 kts | 232° |
| 2026-05-01 12:55 | -8.95805 | -36.02254 | 28162 ft | 446 kts | 232° |
| 2026-05-01 12:56 | -8.97759 | -36.04705 | 28492 ft | 449 kts | 232° |
| 2026-05-01 12:56 | -9.00354 | -36.07963 | 29028 ft | 451 kts | 232° |
| 2026-05-01 12:56 | -9.01678 | -36.09605 | 29233 ft | 453 kts | 231° |
| 2026-05-01 12:56 | -9.03744 | -36.12034 | 29641 ft | 454 kts | 228° |
| 2026-05-01 12:57 | -9.06018 | -36.14246 | 29943 ft | 458 kts | 221° |
| 2026-05-01 12:57 | -9.12017 | -36.18787 | 30768 ft | 463 kts | 216° |
| 2026-05-01 12:57 | -9.13784 | -36.20005 | 31126 ft | 461 kts | 215° |
| 2026-05-01 12:58 | -9.16444 | -36.21814 | 31665 ft | 458 kts | 215° |
| 2026-05-01 12:58 | -9.19092 | -36.23613 | 32051 ft | 458 kts | 215° |
| 2026-05-01 12:59 | -9.26972 | -36.29048 | 32065 ft | 454 kts | 216° |
| 2026-05-01 12:59 | -9.35647 | -36.35146 | 32061 ft | 455 kts | 216° |
| 2026-05-01 13:00 | -9.42563 | -36.40038 | 32055 ft | 453 kts | 216° |
| 2026-05-01 13:01 | -9.51161 | -36.46130 | 32055 ft | 452 kts | 216° |
| 2026-05-01 13:02 | -9.58906 | -36.51622 | 32053 ft | 452 kts | 216° |
| 2026-05-01 13:07 | -10.14197 | -36.91074 | 32027 ft | 446 kts | 216° |
| 2026-05-01 13:08 | -10.19264 | -36.94702 | 32027 ft | 445 kts | 216° |
| 2026-05-01 13:08 | -10.25165 | -36.98930 | 32033 ft | 444 kts | 216° |
| 2026-05-01 13:09 | -10.30200 | -37.02539 | 32030 ft | 444 kts | 216° |
| 2026-05-01 13:09 | -10.35268 | -37.06173 | 32029 ft | 444 kts | 216° |
| 2026-05-01 13:10 | -10.40279 | -37.09768 | 32028 ft | 443 kts | 215° |
| 2026-05-01 13:10 | -10.44500 | -37.12796 | 32029 ft | 443 kts | 215° |
| 2026-05-01 13:11 | -10.50372 | -37.17012 | 32031 ft | 441 kts | 215° |
| 2026-05-01 13:11 | -10.55383 | -37.20611 | 32031 ft | 441 kts | 215° |
| 2026-05-01 13:12 | -10.59537 | -37.23596 | 32031 ft | 442 kts | 215° |
| 2026-05-01 13:12 | -10.65416 | -37.27821 | 32026 ft | 442 kts | 215° |
| 2026-05-01 13:13 | -10.69600 | -37.30830 | 32027 ft | 441 kts | 214° |
| 2026-05-01 13:13 | -10.74619 | -37.34440 | 32025 ft | 441 kts | 214° |
| 2026-05-01 13:14 | -10.79608 | -37.38031 | 32023 ft | 440 kts | 214° |
| 2026-05-01 13:14 | -10.85476 | -37.42256 | 32026 ft | 440 kts | 214° |
| 2026-05-01 13:15 | -10.90476 | -37.45858 | 32028 ft | 441 kts | 214° |
| 2026-05-01 13:15 | -10.94661 | -37.48873 | 32026 ft | 442 kts | 214° |
| 2026-05-01 13:16 | -10.99666 | -37.52481 | 32030 ft | 442 kts | 214° |
| 2026-05-01 13:16 | -11.04700 | -37.56111 | 32027 ft | 442 kts | 214° |
| 2026-05-01 13:17 | -11.14762 | -37.63372 | 32027 ft | 440 kts | 214° |
| 2026-05-01 13:18 | -11.22278 | -37.68799 | 32034 ft | 441 kts | 214° |
| 2026-05-01 13:18 | -11.27299 | -37.72427 | 32042 ft | 441 kts | 214° |
| 2026-05-01 13:19 | -11.32305 | -37.76046 | 32044 ft | 441 kts | 214° |
| 2026-05-01 13:20 | -11.39831 | -37.81489 | 32050 ft | 441 kts | 213° |
| 2026-05-01 13:20 | -11.44815 | -37.85096 | 32050 ft | 441 kts | 213° |
| 2026-05-01 13:21 | -11.53169 | -37.91161 | 32046 ft | 441 kts | 213° |
| 2026-05-01 13:21 | -11.57330 | -37.94194 | 32051 ft | 441 kts | 213° |
| 2026-05-01 13:22 | -11.62332 | -37.97841 | 32048 ft | 440 kts | 213° |
| 2026-05-01 13:22 | -11.67313 | -38.01473 | 32048 ft | 440 kts | 213° |
| 2026-05-01 13:23 | -11.72290 | -38.05103 | 32052 ft | 441 kts | 213° |
| 2026-05-01 13:23 | -11.77289 | -38.08750 | 32052 ft | 442 kts | 213° |
| 2026-05-01 13:24 | -11.82294 | -38.12402 | 32052 ft | 443 kts | 212° |
| 2026-05-01 13:25 | -11.89820 | -38.17897 | 32053 ft | 442 kts | 212° |
| 2026-05-01 13:25 | -11.94855 | -38.21576 | 32052 ft | 443 kts | 213° |
| 2026-05-01 13:26 | -11.99853 | -38.25230 | 32051 ft | 443 kts | 212° |
| 2026-05-01 13:26 | -12.04856 | -38.28888 | 32055 ft | 442 kts | 212° |
| 2026-05-01 13:27 | -12.09894 | -38.32574 | 32056 ft | 443 kts | 212° |
| 2026-05-01 13:27 | -12.17422 | -38.38087 | 32057 ft | 441 kts | 212° |
| 2026-05-01 13:28 | -12.24932 | -38.43589 | 32057 ft | 443 kts | 212° |
| 2026-05-01 13:29 | -12.34946 | -38.50930 | 32050 ft | 443 kts | 212° |
| 2026-05-01 13:31 | -12.50009 | -38.61989 | 32041 ft | 444 kts | 212° |
| 2026-05-01 13:32 | -12.62586 | -38.71235 | 32034 ft | 444 kts | 212° |
| 2026-05-01 13:33 | -12.75120 | -38.80461 | 32034 ft | 444 kts | 212° |
| 2026-05-01 13:34 | -12.85183 | -38.87888 | 32039 ft | 444 kts | 212° |
| 2026-05-01 13:35 | -12.92706 | -38.93453 | 32043 ft | 445 kts | 212° |
| 2026-05-01 13:36 | -13.00277 | -38.99064 | 32045 ft | 446 kts | 212° |
| 2026-05-01 13:36 | -13.07793 | -39.04641 | 32048 ft | 445 kts | 212° |
| 2026-05-01 13:37 | -13.12863 | -39.08405 | 32047 ft | 446 kts | 212° |
| 2026-05-01 13:37 | -13.17897 | -39.12142 | 32052 ft | 445 kts | 212° |
| 2026-05-01 13:38 | -13.26268 | -39.18359 | 32055 ft | 446 kts | 212° |
| 2026-05-01 13:39 | -13.30426 | -39.21450 | 32060 ft | 446 kts | 212° |
| 2026-05-01 13:39 | -13.35462 | -39.25196 | 32064 ft | 445 kts | 212° |
| 2026-05-01 13:40 | -13.40464 | -39.28919 | 32069 ft | 446 kts | 212° |
| 2026-05-01 13:40 | -13.46364 | -39.33313 | 32072 ft | 446 kts | 212° |
| 2026-05-01 13:41 | -13.50528 | -39.36426 | 32076 ft | 447 kts | 213° |
| 2026-05-01 13:41 | -13.55557 | -39.40195 | 32078 ft | 446 kts | 213° |
| 2026-05-01 13:42 | -13.61400 | -39.44579 | 32079 ft | 445 kts | 213° |
| 2026-05-01 13:42 | -13.65565 | -39.47704 | 32085 ft | 445 kts | 213° |
| 2026-05-01 13:43 | -13.71407 | -39.52087 | 32086 ft | 445 kts | 213° |
| 2026-05-01 13:43 | -13.75590 | -39.55225 | 32091 ft | 445 kts | 213° |
| 2026-05-01 13:44 | -13.80606 | -39.58993 | 32093 ft | 446 kts | 213° |
| 2026-05-01 13:44 | -13.86451 | -39.63385 | 32094 ft | 445 kts | 213° |
| 2026-05-01 13:45 | -13.90631 | -39.66528 | 32099 ft | 446 kts | 213° |
| 2026-05-01 13:45 | -13.95632 | -39.70290 | 32100 ft | 446 kts | 213° |
| 2026-05-01 13:46 | -14.00664 | -39.74077 | 32098 ft | 445 kts | 213° |
| 2026-05-01 13:46 | -14.05667 | -39.77845 | 32103 ft | 445 kts | 213° |
| 2026-05-01 13:47 | -14.10646 | -39.81596 | 32104 ft | 444 kts | 213° |
| 2026-05-01 13:47 | -14.15659 | -39.85375 | 32114 ft | 444 kts | 213° |
| 2026-05-01 13:48 | -14.20644 | -39.89136 | 32120 ft | 444 kts | 213° |
| 2026-05-01 13:48 | -14.25666 | -39.92926 | 32128 ft | 445 kts | 213° |
| 2026-05-01 13:49 | -14.30648 | -39.96688 | 32134 ft | 444 kts | 214° |
| 2026-05-01 13:49 | -14.35645 | -40.00464 | 32138 ft | 444 kts | 214° |
| 2026-05-01 13:50 | -14.40606 | -40.04215 | 32136 ft | 444 kts | 214° |
| 2026-05-01 13:50 | -14.45623 | -40.08009 | 32137 ft | 443 kts | 214° |
| 2026-05-01 13:51 | -14.50585 | -40.11765 | 32142 ft | 443 kts | 214° |
| 2026-05-01 13:51 | -14.55558 | -40.15532 | 32144 ft | 444 kts | 214° |
| 2026-05-01 13:52 | -14.60551 | -40.19314 | 32150 ft | 443 kts | 214° |
| 2026-05-01 13:52 | -14.65529 | -40.23089 | 32150 ft | 443 kts | 214° |
| 2026-05-01 13:53 | -14.70483 | -40.26848 | 32159 ft | 443 kts | 214° |
| 2026-05-01 13:53 | -14.77928 | -40.32501 | 32162 ft | 443 kts | 214° |
| 2026-05-01 13:54 | -14.82885 | -40.36268 | 32173 ft | 442 kts | 214° |
| 2026-05-01 13:54 | -14.87852 | -40.40044 | 32177 ft | 442 kts | 214° |
| 2026-05-01 13:55 | -14.92808 | -40.43815 | 32166 ft | 442 kts | 214° |
| 2026-05-01 13:55 | -14.97757 | -40.47583 | 32169 ft | 441 kts | 214° |
| 2026-05-01 13:56 | -15.02694 | -40.51343 | 32163 ft | 441 kts | 214° |
| 2026-05-01 13:56 | -15.07665 | -40.55130 | 32163 ft | 442 kts | 214° |
| 2026-05-01 13:57 | -15.12622 | -40.58911 | 32163 ft | 442 kts | 214° |
| 2026-05-01 13:57 | -15.17575 | -40.62689 | 32162 ft | 442 kts | 214° |
| 2026-05-01 13:58 | -15.22526 | -40.66470 | 32163 ft | 442 kts | 214° |
| 2026-05-01 13:58 | -15.27533 | -40.70294 | 32161 ft | 442 kts | 214° |
| 2026-05-01 13:59 | -15.32482 | -40.74077 | 32170 ft | 442 kts | 214° |
| 2026-05-01 13:59 | -15.37444 | -40.77872 | 32176 ft | 443 kts | 214° |
| 2026-05-01 14:00 | -15.42379 | -40.81648 | 32182 ft | 443 kts | 214° |
| 2026-05-01 14:00 | -15.47352 | -40.85456 | 32194 ft | 443 kts | 214° |
| 2026-05-01 14:01 | -15.52320 | -40.89263 | 32190 ft | 442 kts | 214° |
| 2026-05-01 14:01 | -15.57253 | -40.93046 | 32196 ft | 442 kts | 214° |
| 2026-05-01 14:02 | -15.62195 | -40.96837 | 32196 ft | 442 kts | 214° |
| 2026-05-01 14:02 | -15.67140 | -41.00632 | 32196 ft | 443 kts | 214° |
| 2026-05-01 14:03 | -15.72125 | -41.04461 | 32194 ft | 442 kts | 214° |
| 2026-05-01 14:03 | -15.77047 | -41.08244 | 32203 ft | 442 kts | 214° |
| 2026-05-01 14:04 | -15.81985 | -41.12042 | 32206 ft | 442 kts | 215° |
| 2026-05-01 14:04 | -15.86944 | -41.15858 | 32206 ft | 442 kts | 215° |
| 2026-05-01 14:05 | -15.91877 | -41.19656 | 32206 ft | 442 kts | 215° |
| 2026-05-01 14:05 | -15.96839 | -41.23480 | 32204 ft | 442 kts | 215° |
| 2026-05-01 14:06 | -16.01782 | -41.27289 | 32201 ft | 443 kts | 214° |
| 2026-05-01 14:06 | -16.06717 | -41.31096 | 32204 ft | 442 kts | 215° |
| 2026-05-01 14:07 | -16.11657 | -41.34908 | 32202 ft | 441 kts | 214° |
| 2026-05-01 14:08 | -16.19094 | -41.40653 | 32202 ft | 441 kts | 215° |
| 2026-05-01 14:08 | -16.24018 | -41.44457 | 32202 ft | 442 kts | 215° |
| 2026-05-01 14:09 | -16.28956 | -41.48277 | 32198 ft | 441 kts | 215° |
| 2026-05-01 14:09 | -16.33889 | -41.52095 | 32194 ft | 442 kts | 214° |
| 2026-05-01 14:10 | -16.38840 | -41.55929 | 32186 ft | 442 kts | 215° |
| 2026-05-01 14:10 | -16.43765 | -41.59746 | 32181 ft | 441 kts | 215° |
| 2026-05-01 14:11 | -16.48675 | -41.63553 | 32172 ft | 441 kts | 215° |
| 2026-05-01 14:11 | -16.56077 | -41.69296 | 32174 ft | 441 kts | 215° |
| 2026-05-01 14:12 | -16.61004 | -41.73123 | 32181 ft | 441 kts | 215° |
| 2026-05-01 14:12 | -16.65925 | -41.76948 | 32188 ft | 441 kts | 215° |
| 2026-05-01 14:13 | -16.70832 | -41.80767 | 32186 ft | 441 kts | 215° |
| 2026-05-01 14:13 | -16.75753 | -41.84597 | 32184 ft | 440 kts | 215° |
| 2026-05-01 14:14 | -16.80660 | -41.88418 | 32184 ft | 440 kts | 215° |
| 2026-05-01 14:14 | -16.85600 | -41.92267 | 32251 ft | 446 kts | 215° |
| 2026-05-01 14:15 | -16.88087 | -41.94205 | 32692 ft | 444 kts | 215° |
| 2026-05-01 14:15 | -16.90556 | -41.96131 | 33297 ft | 441 kts | 215° |
| 2026-05-01 14:15 | -16.93018 | -41.98053 | 33830 ft | 439 kts | 215° |
| 2026-05-01 14:15 | -16.95345 | -41.99871 | 34177 ft | 439 kts | 216° |
| 2026-05-01 14:16 | -17.00234 | -42.03691 | 34189 ft | 435 kts | 215° |
| 2026-05-01 14:16 | -17.05053 | -42.07461 | 34194 ft | 433 kts | 215° |
| 2026-05-01 14:17 | -17.09894 | -42.11248 | 34194 ft | 434 kts | 216° |
| 2026-05-01 14:17 | -17.14752 | -42.15052 | 34197 ft | 433 kts | 216° |
| 2026-05-01 14:18 | -17.19594 | -42.18845 | 34194 ft | 434 kts | 216° |
| 2026-05-01 14:18 | -17.24400 | -42.22611 | 34190 ft | 434 kts | 216° |
| 2026-05-01 14:19 | -17.29247 | -42.26413 | 34198 ft | 434 kts | 216° |
| 2026-05-01 14:19 | -17.34083 | -42.30207 | 34202 ft | 434 kts | 216° |
| 2026-05-01 14:20 | -17.41316 | -42.35892 | 34212 ft | 433 kts | 216° |
| 2026-05-01 14:21 | -17.46164 | -42.39705 | 34215 ft | 432 kts | 216° |
| 2026-05-01 14:21 | -17.50993 | -42.43504 | 34225 ft | 433 kts | 216° |
| 2026-05-01 14:22 | -17.58191 | -42.49174 | 34229 ft | 433 kts | 216° |
| 2026-05-01 14:22 | -17.63030 | -42.52986 | 34232 ft | 433 kts | 216° |
| 2026-05-01 14:23 | -17.67839 | -42.56777 | 34237 ft | 432 kts | 216° |
| 2026-05-01 14:23 | -17.72655 | -42.60578 | 34240 ft | 432 kts | 216° |
| 2026-05-01 14:24 | -17.77466 | -42.64377 | 34246 ft | 432 kts | 216° |
| 2026-05-01 14:24 | -17.82290 | -42.68189 | 34254 ft | 432 kts | 216° |
| 2026-05-01 14:25 | -17.87090 | -42.71986 | 34265 ft | 432 kts | 216° |
| 2026-05-01 14:25 | -17.91874 | -42.75772 | 34279 ft | 432 kts | 216° |
| 2026-05-01 14:26 | -17.99073 | -42.81475 | 34287 ft | 432 kts | 216° |
| 2026-05-01 14:27 | -18.03867 | -42.85276 | 34278 ft | 431 kts | 216° |
| 2026-05-01 14:27 | -18.08638 | -42.89061 | 34262 ft | 429 kts | 216° |
| 2026-05-01 14:28 | -18.15793 | -42.94741 | 34254 ft | 429 kts | 216° |
| 2026-05-01 14:28 | -18.20568 | -42.98535 | 34245 ft | 429 kts | 216° |
| 2026-05-01 14:29 | -18.24978 | -43.02042 | 34245 ft | 429 kts | 216° |
| 2026-05-01 14:30 | -18.34542 | -43.09656 | 34251 ft | 428 kts | 216° |
| 2026-05-01 14:31 | -18.41654 | -43.15339 | 34252 ft | 427 kts | 217° |
| 2026-05-01 14:31 | -18.46360 | -43.19147 | 34251 ft | 426 kts | 217° |
| 2026-05-01 14:32 | -18.51075 | -43.22975 | 34242 ft | 426 kts | 217° |
| 2026-05-01 14:32 | -18.55776 | -43.26792 | 34237 ft | 426 kts | 217° |
| 2026-05-01 14:33 | -18.60459 | -43.30595 | 34239 ft | 426 kts | 217° |
| 2026-05-01 14:33 | -18.65186 | -43.34420 | 34235 ft | 427 kts | 217° |
| 2026-05-01 14:34 | -18.69933 | -43.38198 | 34231 ft | 426 kts | 217° |
| 2026-05-01 14:34 | -18.74673 | -43.41952 | 34232 ft | 426 kts | 217° |
| 2026-05-01 14:35 | -18.79424 | -43.45719 | 34232 ft | 426 kts | 217° |
| 2026-05-01 14:35 | -18.84157 | -43.49481 | 34225 ft | 426 kts | 217° |
| 2026-05-01 14:36 | -18.88880 | -43.53237 | 34227 ft | 426 kts | 217° |
| 2026-05-01 14:36 | -18.93657 | -43.56941 | 34229 ft | 426 kts | 216° |
| 2026-05-01 14:37 | -18.98508 | -43.60643 | 34231 ft | 427 kts | 216° |
| 2026-05-01 14:37 | -19.03287 | -43.64294 | 34233 ft | 427 kts | 216° |
| 2026-05-01 14:38 | -19.08125 | -43.68002 | 34236 ft | 426 kts | 217° |
| 2026-05-01 14:38 | -19.12932 | -43.71696 | 34234 ft | 425 kts | 217° |
| 2026-05-01 14:39 | -19.17713 | -43.75375 | 34233 ft | 425 kts | 217° |
| 2026-05-01 14:39 | -19.22464 | -43.79034 | 34225 ft | 425 kts | 217° |
| 2026-05-01 14:40 | -19.27238 | -43.82716 | 34217 ft | 425 kts | 217° |
| 2026-05-01 14:40 | -19.32019 | -43.86404 | 34219 ft | 424 kts | 217° |
| 2026-05-01 14:41 | -19.36807 | -43.90101 | 34218 ft | 425 kts | 217° |
| 2026-05-01 14:41 | -19.41583 | -43.93790 | 34222 ft | 424 kts | 217° |
| 2026-05-01 14:42 | -19.46354 | -43.97479 | 34229 ft | 423 kts | 217° |
| 2026-05-01 14:42 | -19.51094 | -44.01148 | 34234 ft | 423 kts | 217° |
| 2026-05-01 14:43 | -19.55851 | -44.04829 | 34240 ft | 423 kts | 217° |
| 2026-05-01 14:43 | -19.60644 | -44.08519 | 34243 ft | 423 kts | 217° |
| 2026-05-01 14:44 | -19.65388 | -44.12159 | 34245 ft | 424 kts | 217° |
| 2026-05-01 14:44 | -19.72573 | -44.17675 | 34250 ft | 424 kts | 217° |
| 2026-05-01 14:45 | -19.79718 | -44.23198 | 34250 ft | 423 kts | 217° |
| 2026-05-01 14:46 | -19.84479 | -44.26886 | 34248 ft | 424 kts | 218° |
| 2026-05-01 14:46 | -19.91655 | -44.32447 | 34245 ft | 424 kts | 218° |
| 2026-05-01 14:47 | -19.96406 | -44.36130 | 34242 ft | 423 kts | 218° |
| 2026-05-01 14:48 | -20.03564 | -44.41685 | 34246 ft | 423 kts | 218° |
| 2026-05-01 14:48 | -20.10691 | -44.47222 | 34249 ft | 423 kts | 218° |
| 2026-05-01 14:49 | -20.20209 | -44.54623 | 34245 ft | 423 kts | 218° |
| 2026-05-01 14:50 | -20.29709 | -44.62019 | 34246 ft | 423 kts | 218° |
| 2026-05-01 14:51 | -20.36841 | -44.67578 | 34241 ft | 422 kts | 218° |
| 2026-05-01 14:52 | -20.43949 | -44.73125 | 34244 ft | 422 kts | 218° |
| 2026-05-01 14:53 | -20.51057 | -44.78678 | 34249 ft | 422 kts | 218° |
| 2026-05-01 14:53 | -20.55806 | -44.82387 | 34248 ft | 422 kts | 218° |
| 2026-05-01 14:54 | -20.60540 | -44.86086 | 34246 ft | 422 kts | 218° |
| 2026-05-01 14:54 | -20.65286 | -44.89795 | 34246 ft | 422 kts | 218° |
| 2026-05-01 14:55 | -20.69994 | -44.93480 | 34250 ft | 419 kts | 218° |
| 2026-05-01 14:55 | -20.74714 | -44.97178 | 34246 ft | 420 kts | 218° |
| 2026-05-01 14:56 | -20.79409 | -45.00864 | 34248 ft | 418 kts | 219° |
| 2026-05-01 14:56 | -20.84083 | -45.04543 | 34246 ft | 420 kts | 219° |
| 2026-05-01 14:57 | -20.88780 | -45.08242 | 34249 ft | 419 kts | 219° |
| 2026-05-01 14:57 | -20.95853 | -45.13814 | 34245 ft | 419 kts | 219° |
| 2026-05-01 14:58 | -21.00530 | -45.17500 | 34243 ft | 419 kts | 219° |
| 2026-05-01 14:58 | -21.05236 | -45.21210 | 34240 ft | 418 kts | 219° |
| 2026-05-01 14:59 | -21.09895 | -45.24887 | 34245 ft | 419 kts | 219° |
| 2026-05-01 14:59 | -21.14616 | -45.28617 | 34245 ft | 419 kts | 219° |
| 2026-05-01 15:00 | -21.21654 | -45.34181 | 34248 ft | 420 kts | 219° |
| 2026-05-01 15:01 | -21.26352 | -45.37900 | 34248 ft | 418 kts | 219° |
| 2026-05-01 15:01 | -21.31031 | -45.41607 | 34251 ft | 417 kts | 219° |
| 2026-05-01 15:02 | -21.35706 | -45.45312 | 34250 ft | 416 kts | 219° |
| 2026-05-01 15:02 | -21.40356 | -45.49003 | 34253 ft | 417 kts | 219° |
| 2026-05-01 15:03 | -21.45033 | -45.52717 | 34261 ft | 415 kts | 219° |
| 2026-05-01 15:03 | -21.49650 | -45.56385 | 34272 ft | 414 kts | 219° |
| 2026-05-01 15:04 | -21.54318 | -45.60070 | 34276 ft | 414 kts | 219° |
| 2026-05-01 15:04 | -21.58851 | -45.63624 | 34275 ft | 415 kts | 219° |
| 2026-05-01 15:05 | -21.63494 | -45.67265 | 34274 ft | 414 kts | 219° |
| 2026-05-01 15:05 | -21.68150 | -45.70924 | 34279 ft | 414 kts | 219° |
| 2026-05-01 15:06 | -21.72822 | -45.74599 | 34280 ft | 413 kts | 219° |
| 2026-05-01 15:06 | -21.77371 | -45.78177 | 33926 ft | 398 kts | 219° |
| 2026-05-01 15:06 | -21.79597 | -45.79929 | 33513 ft | 393 kts | 219° |
| 2026-05-01 15:07 | -21.81774 | -45.81645 | 33059 ft | 390 kts | 219° |
| 2026-05-01 15:07 | -21.83969 | -45.83378 | 32610 ft | 386 kts | 219° |
| 2026-05-01 15:07 | -21.86131 | -45.85084 | 32326 ft | 378 kts | 219° |
| 2026-05-01 15:07 | -21.88233 | -45.86744 | 32037 ft | 372 kts | 220° |
| 2026-05-01 15:08 | -21.90300 | -45.88377 | 31614 ft | 369 kts | 220° |
| 2026-05-01 15:08 | -21.92383 | -45.90025 | 31168 ft | 367 kts | 220° |
| 2026-05-01 15:08 | -21.94445 | -45.91660 | 30723 ft | 380 kts | 220° |
| 2026-05-01 15:08 | -21.96635 | -45.93401 | 30219 ft | 392 kts | 219° |
| 2026-05-01 15:09 | -21.98816 | -45.95131 | 29724 ft | 391 kts | 219° |
| 2026-05-01 15:09 | -22.01004 | -45.96860 | 29237 ft | 388 kts | 219° |
| 2026-05-01 15:09 | -22.03188 | -45.98586 | 28750 ft | 386 kts | 219° |
| 2026-05-01 15:09 | -22.05326 | -46.00276 | 28273 ft | 383 kts | 219° |
| 2026-05-01 15:10 | -22.07480 | -46.01981 | 27783 ft | 382 kts | 219° |
| 2026-05-01 15:10 | -22.11740 | -46.05356 | 26813 ft | 377 kts | 219° |
| 2026-05-01 15:10 | -22.13841 | -46.07023 | 26329 ft | 376 kts | 219° |
| 2026-05-01 15:11 | -22.15966 | -46.08708 | 25843 ft | 374 kts | 219° |
| 2026-05-01 15:11 | -22.20131 | -46.12015 | 24889 ft | 370 kts | 219° |
| 2026-05-01 15:11 | -22.22180 | -46.13643 | 24422 ft | 368 kts | 219° |
| 2026-05-01 15:12 | -22.24238 | -46.15279 | 23953 ft | 365 kts | 219° |
| 2026-05-01 15:12 | -22.28300 | -46.18510 | 23029 ft | 361 kts | 219° |
| 2026-05-01 15:12 | -22.30352 | -46.20061 | 22575 ft | 360 kts | 215° |
| 2026-05-01 15:13 | -22.37456 | -46.22416 | 21362 ft | 357 kts | 190° |
| 2026-05-01 15:14 | -22.42361 | -46.23072 | 20484 ft | 354 kts | 189° |
| 2026-05-01 15:14 | -22.44796 | -46.23400 | 20045 ft | 352 kts | 189° |
| 2026-05-01 15:14 | -22.49637 | -46.24098 | 19180 ft | 349 kts | 190° |
| 2026-05-01 15:15 | -22.54440 | -46.24828 | 18355 ft | 343 kts | 190° |
| 2026-05-01 15:15 | -22.59040 | -46.25538 | 18302 ft | 332 kts | 191° |
| 2026-05-01 15:16 | -22.63653 | -46.26259 | 18296 ft | 333 kts | 191° |
| 2026-05-01 15:16 | -22.68258 | -46.26976 | 18071 ft | 330 kts | 191° |
| 2026-05-01 15:17 | -22.72799 | -46.27682 | 17278 ft | 327 kts | 191° |
| 2026-05-01 15:18 | -22.79363 | -46.29265 | 16202 ft | 316 kts | 207° |
| 2026-05-01 15:18 | -22.81308 | -46.30383 | 15968 ft | 317 kts | 213° |
| 2026-05-01 15:19 | -22.85688 | -46.35358 | 15281 ft | 306 kts | 253° |
| 2026-05-01 15:19 | -22.85663 | -46.39853 | 15256 ft | 305 kts | 290° |
| 2026-05-01 15:19 | -22.84847 | -46.41980 | 15256 ft | 305 kts | 293° |
| 2026-05-01 15:20 | -22.83617 | -46.46347 | 15258 ft | 305 kts | 280° |
| 2026-05-01 15:20 | -22.83298 | -46.48603 | 15252 ft | 304 kts | 278° |
| 2026-05-01 15:20 | -22.83012 | -46.50917 | 15251 ft | 304 kts | 278° |
| 2026-05-01 15:21 | -22.82788 | -46.53190 | 15248 ft | 305 kts | 273° |
| 2026-05-01 15:21 | -22.82778 | -46.55489 | 15245 ft | 305 kts | 268° |
| 2026-05-01 15:21 | -22.82909 | -46.57790 | 15242 ft | 305 kts | 266° |
| 2026-05-01 15:21 | -22.83089 | -46.60063 | 15244 ft | 305 kts | 265° |
| 2026-05-01 15:22 | -22.83839 | -46.64581 | 15236 ft | 306 kts | 255° |
| 2026-05-01 15:22 | -22.84461 | -46.66792 | 15231 ft | 306 kts | 253° |
| 2026-05-01 15:22 | -22.85131 | -46.69000 | 15231 ft | 306 kts | 253° |
| 2026-05-01 15:23 | -22.85855 | -46.71180 | 15224 ft | 306 kts | 248° |
| 2026-05-01 15:23 | -22.86793 | -46.73268 | 15222 ft | 307 kts | 243° |
| 2026-05-01 15:23 | -22.87901 | -46.75252 | 15215 ft | 308 kts | 234° |
| 2026-05-01 15:23 | -22.89478 | -46.76823 | 15218 ft | 313 kts | 211° |
| 2026-05-01 15:24 | -22.91548 | -46.77627 | 15222 ft | 317 kts | 190° |
| 2026-05-01 15:24 | -22.93741 | -46.77695 | 15132 ft | 316 kts | 175° |
| 2026-05-01 15:24 | -22.95856 | -46.77107 | 14725 ft | 318 kts | 155° |
| 2026-05-01 15:24 | -22.97709 | -46.75764 | 14307 ft | 317 kts | 142° |
| 2026-05-01 15:25 | -22.99380 | -46.74235 | 13912 ft | 315 kts | 140° |
| 2026-05-01 15:25 | -23.01024 | -46.72681 | 13548 ft | 313 kts | 140° |
| 2026-05-01 15:25 | -23.02688 | -46.71135 | 13160 ft | 311 kts | 140° |
| 2026-05-01 15:25 | -23.04346 | -46.69630 | 12803 ft | 308 kts | 141° |
| 2026-05-01 15:26 | -23.05998 | -46.68156 | 12430 ft | 307 kts | 141° |
| 2026-05-01 15:26 | -23.07626 | -46.66714 | 12074 ft | 304 kts | 141° |
| 2026-05-01 15:26 | -23.09276 | -46.65254 | 11713 ft | 303 kts | 141° |
| 2026-05-01 15:26 | -23.10894 | -46.63823 | 11360 ft | 301 kts | 141° |
| 2026-05-01 15:27 | -23.12534 | -46.62368 | 10962 ft | 300 kts | 141° |
| 2026-05-01 15:27 | -23.14132 | -46.60951 | 10687 ft | 295 kts | 141° |
| 2026-05-01 15:27 | -23.15696 | -46.59562 | 10429 ft | 290 kts | 140° |
| 2026-05-01 15:28 | -23.18882 | -46.56848 | 9678 ft | 289 kts | 148° |
| 2026-05-01 15:28 | -23.20630 | -46.56052 | 9359 ft | 286 kts | 172° |
| 2026-05-01 15:28 | -23.22564 | -46.56240 | 9158 ft | 276 kts | 202° |
| 2026-05-01 15:29 | -23.25779 | -46.58412 | 8407 ft | 275 kts | 217° |
| 2026-05-01 15:29 | -23.27355 | -46.59596 | 8235 ft | 269 kts | 216° |
| 2026-05-01 15:29 | -23.30478 | -46.61852 | 8189 ft | 273 kts | 214° |
| 2026-05-01 15:30 | -23.33167 | -46.63759 | 7550 ft | 276 kts | 215° |
| 2026-05-01 15:31 | -23.40114 | -46.68579 | 6150 ft | 271 kts | 206° |
| 2026-05-01 15:31 | -23.43562 | -46.68509 | 5900 ft | 237 kts | 144° |
| 2026-05-01 15:32 | -23.45427 | -46.66100 | 5529 ft | 196 kts | 121° |
| 2026-05-01 15:32 | -23.46869 | -46.63777 | 5281 ft | 171 kts | 116° |
| 2026-05-01 15:33 | -23.46637 | -46.60265 | 4627 ft | 153 kts | 74° |
| 2026-05-01 15:34 | -23.45768 | -46.56945 | 4023 ft | 153 kts | 71° |